Time;durP1;ratioP1;P1;durP2;ratioP2;P2;SDS_P1;SDS_P2;PMS_P1;PMS_P2;Temp;Humidity;BMP_temperature;BMP_pressure;BME280_temperature;BME280_humidity;BME280_pressure;Samples;Min_cycle;Max_cycle;Signal;HPM_P1;HPM_P2
2023/08/31 00:00:45;;;;;;;309.27;39.95;;;;;;;;;;4926150;28;20434;-56
2023/08/31 00:03:10;;;;;;;367.50;43.33;;;;;;;;;;4926078;28;20560;-55
2023/08/31 00:05:41;;;;;;;252.88;37.58;;;;;;;;;;4926523;28;20043;-55
2023/08/31 00:08:07;;;;;;;426.08;44.15;;;;;;;;;;4922703;28;20558;-57
2023/08/31 00:10:33;;;;;;;250.18;38.50;;;;;;;;;;4927335;28;20744;-55
2023/08/31 00:12:58;;;;;;;340.17;40.78;;;;;;;;;;4925222;28;20020;-55
2023/08/31 00:15:23;;;;;;;257.30;37.77;;;;;;;;;;4926071;28;20666;-54
2023/08/31 00:17:49;;;;;;;262.65;37.85;;;;;;;;;;4927267;28;20733;-56
2023/08/31 00:20:14;;;;;;;474.02;44.90;;;;;;;;;;4922797;28;20031;-56
2023/08/31 00:22:39;;;;;;;324.42;39.25;;;;;;;;;;4926776;28;20019;-55
2023/08/31 00:25:08;;;;;;;408.80;43.10;;;;;;;;;;4924232;28;20042;-57
2023/08/31 00:27:33;;;;;;;315.23;39.83;;;;;;;;;;4927279;28;20156;-57
2023/08/31 00:29:59;;;;;;;324.75;39.58;;;;;;;;;;4925979;28;20698;-54
2023/08/31 00:32:24;;;;;;;202.48;36.85;;;;;;;;;;4926920;28;20116;-55
2023/08/31 00:34:50;;;;;;;304.77;38.80;;;;;;;;;;4927310;28;20111;-56
2023/08/31 00:37:15;;;;;;;373.05;41.30;;;;;;;;;;4925632;28;20113;-56
2023/08/31 00:39:40;;;;;;;214.50;36.47;;;;;;;;;;4928075;28;20220;-56
2023/08/31 00:42:05;;;;;;;432.95;43.47;;;;;;;;;;4926026;28;20067;-55
2023/08/31 00:44:31;;;;;;;263.80;38.08;;;;;;;;;;4926440;28;20031;-57
2023/08/31 00:46:56;;;;;;;257.63;38.75;;;;;;;;;;4925800;28;20122;-56
2023/08/31 00:49:21;;;;;;;282.52;38.08;;;;;;;;;;4925010;28;20028;-55
2023/08/31 00:51:49;;;;;;;294.05;39.83;;;;;;;;;;4925815;28;20429;-55
2023/08/31 00:54:16;;;;;;;372.98;43.67;;;;;;;;;;4925566;28;20047;-54
2023/08/31 00:56:41;;;;;;;288.33;39.88;;;;;;;;;;4925202;28;20039;-55
2023/08/31 00:59:06;;;;;;;377.55;42.97;;;;;;;;;;4925516;28;20054;-56
2023/08/31 01:01:37;;;;;;;280.40;39.20;;;;;;;;;;4924566;28;20070;-54
2023/08/31 01:04:22;;;;;;;462.53;45.83;;;;;;;;;;4924413;28;20374;-54
2023/08/31 01:06:50;;;;;;;231.18;40.10;;;;;;;;;;4926523;28;20039;-55
2023/08/31 01:09:27;;;;;;;471.30;47.80;;;;;;;;;;4926650;28;20024;-55
2023/08/31 01:12:06;;;;;;;211.23;38.38;;;;;;;;;;4926086;28;20499;-54
2023/08/31 01:14:42;;;;;;;345.00;42.58;;;;;;;;;;4925904;28;20032;-55
2023/08/31 01:17:07;;;;;;;385.70;44.33;;;;;;;;;;4925502;28;20039;-53
2023/08/31 01:19:49;;;;;;;262.35;33.88;;;;;;;;;;4926228;28;20035;-56
2023/08/31 01:22:18;;;;;;;267.63;37.15;;;;;;;;;;4926311;28;20038;-56
2023/08/31 01:24:44;;;;;;;225.10;34.70;;;;;;;;;;4925081;28;20150;-54
2023/08/31 01:27:09;;;;;;;374.92;40.67;;;;;;;;;;4924961;28;20047;-54
2023/08/31 01:29:35;;;;;;;265.38;36.00;;;;;;;;;;4928206;28;20472;-55
2023/08/31 01:32:00;;;;;;;290.00;37.03;;;;;;;;;;4924978;28;20490;-54
2023/08/31 01:34:25;;;;;;;185.38;34.08;;;;;;;;;;4925857;28;20110;-53
2023/08/31 01:36:55;;;;;;;227.35;35.65;;;;;;;;;;4925454;28;20317;-54
2023/08/31 01:39:25;;;;;;;296.90;37.58;;;;;;;;;;4926585;28;20031;-54
2023/08/31 01:41:55;;;;;;;239.05;34.85;;;;;;;;;;4925432;28;20308;-54
2023/08/31 01:44:21;;;;;;;262.30;35.53;;;;;;;;;;4922751;28;20047;-55
2023/08/31 01:46:47;;;;;;;277.38;35.72;;;;;;;;;;4923657;28;20348;-53
2023/08/31 01:49:14;;;;;;;334.52;37.97;;;;;;;;;;4926367;28;20068;-55
2023/08/31 01:51:39;;;;;;;235.27;35.05;;;;;;;;;;4925554;28;21083;-56
2023/08/31 01:54:04;;;;;;;355.00;38.03;;;;;;;;;;4925993;28;20023;-56
2023/08/31 01:56:29;;;;;;;250.20;34.55;;;;;;;;;;4925497;28;20282;-55
2023/08/31 01:58:55;;;;;;;218.73;35.23;;;;;;;;;;4926217;28;20349;-55
2023/08/31 02:01:20;;;;;;;289.70;35.87;;;;;;;;;;4925476;28;20366;-56
2023/08/31 02:03:45;;;;;;;282.97;36.30;;;;;;;;;;4925489;28;20031;-55
2023/08/31 02:06:10;;;;;;;367.63;40.42;;;;;;;;;;4924250;28;20287;-56
2023/08/31 02:08:36;;;;;;;292.83;37.90;;;;;;;;;;4924155;28;20669;-53
2023/08/31 02:11:01;;;;;;;248.73;35.93;;;;;;;;;;4922737;28;20666;-55
2023/08/31 02:13:26;;;;;;;224.03;35.80;;;;;;;;;;4923742;28;20822;-55
2023/08/31 02:15:52;;;;;;;291.95;37.95;;;;;;;;;;4924875;28;20267;-54
2023/08/31 02:18:18;;;;;;;322.73;40.83;;;;;;;;;;4921833;28;20282;-53
2023/08/31 02:20:43;;;;;;;258.55;35.85;;;;;;;;;;4924452;28;20039;-54
2023/08/31 02:23:09;;;;;;;390.63;40.70;;;;;;;;;;4923847;28;20310;-54
2023/08/31 02:25:34;;;;;;;267.25;35.58;;;;;;;;;;4923640;28;20275;-55
2023/08/31 02:27:59;;;;;;;240.60;35.70;;;;;;;;;;4925210;28;20027;-53
2023/08/31 02:30:25;;;;;;;278.17;37.17;;;;;;;;;;4924440;28;20300;-54
2023/08/31 02:32:50;;;;;;;232.40;34.15;;;;;;;;;;4923023;28;20718;-54
2023/08/31 02:35:15;;;;;;;273.97;36.97;;;;;;;;;;4923347;28;20026;-56
2023/08/31 02:37:41;;;;;;;331.25;37.03;;;;;;;;;;4923595;28;20354;-56
2023/08/31 02:40:08;;;;;;;348.52;37.90;;;;;;;;;;4923690;28;20216;-54
2023/08/31 02:42:33;;;;;;;221.13;34.80;;;;;;;;;;4923008;28;20044;-55
2023/08/31 02:44:58;;;;;;;295.33;35.85;;;;;;;;;;4924256;28;20543;-55
2023/08/31 02:47:23;;;;;;;241.50;34.17;;;;;;;;;;4923128;28;20071;-55
2023/08/31 02:49:49;;;;;;;282.23;35.50;;;;;;;;;;4925284;28;20032;-55
2023/08/31 02:52:14;;;;;;;412.55;39.97;;;;;;;;;;4927360;28;20123;-54
2023/08/31 02:54:39;;;;;;;220.90;33.35;;;;;;;;;;4928550;28;20035;-54
2023/08/31 02:57:04;;;;;;;242.40;34.88;;;;;;;;;;4927411;28;20039;-53
2023/08/31 02:59:30;;;;;;;299.85;36.70;;;;;;;;;;4927131;28;20071;-53
2023/08/31 03:01:55;;;;;;;245.75;34.55;;;;;;;;;;4927637;28;20049;-52
2023/08/31 03:04:20;;;;;;;364.53;40.10;;;;;;;;;;4925626;28;20032;-53
2023/08/31 03:06:47;;;;;;;300.40;35.75;;;;;;;;;;4926226;28;20302;-56
2023/08/31 03:09:13;;;;;;;309.10;37.13;;;;;;;;;;4926123;28;20129;-53
2023/08/31 03:11:38;;;;;;;274.25;34.97;;;;;;;;;;4926488;28;20043;-52
2023/08/31 03:14:03;;;;;;;313.67;35.60;;;;;;;;;;4929331;28;20127;-53
2023/08/31 03:16:29;;;;;;;271.25;34.75;;;;;;;;;;4923958;28;20047;-53
2023/08/31 03:18:54;;;;;;;251.45;34.17;;;;;;;;;;4926960;28;20035;-53
2023/08/31 03:21:20;;;;;;;340.27;40.15;;;;;;;;;;4926250;28;20290;-53
2023/08/31 03:23:45;;;;;;;299.90;37.00;;;;;;;;;;4928273;28;20063;-52
2023/08/31 03:26:10;;;;;;;305.23;37.25;;;;;;;;;;4925952;28;20040;-52
2023/08/31 03:28:35;;;;;;;278.53;37.17;;;;;;;;;;4926675;28;20027;-52
2023/08/31 03:31:01;;;;;;;248.65;35.88;;;;;;;;;;4926527;28;20846;-54
2023/08/31 03:33:27;;;;;;;256.83;36.17;;;;;;;;;;4926538;28;20036;-54
2023/08/31 03:35:52;;;;;;;277.95;36.83;;;;;;;;;;4925241;28;20568;-54
2023/08/31 03:38:17;;;;;;;373.98;40.17;;;;;;;;;;4925194;28;20054;-55
2023/08/31 03:40:44;;;;;;;200.40;35.93;;;;;;;;;;4927652;28;20428;-53
2023/08/31 03:43:09;;;;;;;308.73;38.45;;;;;;;;;;4928854;28;20266;-53
2023/08/31 03:45:34;;;;;;;178.10;34.55;;;;;;;;;;4928454;28;20353;-52
2023/08/31 03:47:59;;;;;;;222.67;35.97;;;;;;;;;;4926480;28;20309;-53
2023/08/31 03:50:25;;;;;;;417.47;41.40;;;;;;;;;;4922726;28;20270;-52
2023/08/31 03:52:50;;;;;;;231.95;35.20;;;;;;;;;;4927938;28;20311;-53
2023/08/31 03:55:15;;;;;;;367.90;41.27;;;;;;;;;;4924109;28;20031;-53
2023/08/31 03:57:40;;;;;;;312.93;37.53;;;;;;;;;;4927410;28;20259;-53
2023/08/31 04:00:10;;;;;;;283.40;36.43;;;;;;;;;;4925153;28;20259;-54
2023/08/31 04:02:35;;;;;;;261.55;37.42;;;;;;;;;;4927038;28;20310;-54
2023/08/31 04:05:01;;;;;;;299.67;38.55;;;;;;;;;;4926510;28;20189;-53
2023/08/31 04:07:26;;;;;;;356.85;43.15;;;;;;;;;;4924235;28;20417;-53
2023/08/31 04:09:51;;;;;;;267.87;38.00;;;;;;;;;;4924907;28;20093;-53
2023/08/31 04:12:16;;;;;;;459.80;44.33;;;;;;;;;;4924548;28;20279;-53
2023/08/31 04:14:42;;;;;;;254.10;37.53;;;;;;;;;;4927568;28;20977;-53
2023/08/31 04:17:07;;;;;;;290.63;38.25;;;;;;;;;;4925205;28;20276;-53
2023/08/31 04:19:32;;;;;;;279.30;38.65;;;;;;;;;;4925639;28;20470;-54
2023/08/31 04:21:57;;;;;;;238.52;38.00;;;;;;;;;;4924610;28;20057;-54
2023/08/31 04:24:23;;;;;;;395.83;42.88;;;;;;;;;;4924085;28;20115;-55
2023/08/31 04:26:51;;;;;;;301.60;39.20;;;;;;;;;;4924560;28;20035;-54
2023/08/31 04:29:16;;;;;;;398.45;44.00;;;;;;;;;;4926932;28;20251;-53
2023/08/31 04:31:41;;;;;;;280.60;38.22;;;;;;;;;;4925764;28;20371;-54
2023/08/31 04:34:07;;;;;;;357.45;40.83;;;;;;;;;;4925567;28;20430;-53
2023/08/31 04:36:32;;;;;;;275.52;39.20;;;;;;;;;;4925133;28;20135;-53
2023/08/31 04:38:58;;;;;;;255.82;38.45;;;;;;;;;;4928518;28;20489;-56
2023/08/31 04:41:23;;;;;;;367.27;42.80;;;;;;;;;;4925116;28;20047;-54
2023/08/31 04:43:48;;;;;;;290.50;40.40;;;;;;;;;;4925900;28;20024;-53
2023/08/31 04:46:14;;;;;;;282.42;39.55;;;;;;;;;;4923363;28;20260;-53
2023/08/31 04:48:39;;;;;;;311.67;40.92;;;;;;;;;;4929343;28;20482;-53
2023/08/31 04:51:05;;;;;;;243.10;39.58;;;;;;;;;;4925695;28;20370;-53
2023/08/31 04:53:30;;;;;;;228.65;38.53;;;;;;;;;;4924090;28;20050;-53
2023/08/31 04:55:55;;;;;;;292.65;39.67;;;;;;;;;;4924024;28;20445;-55
2023/08/31 04:58:20;;;;;;;318.60;41.75;;;;;;;;;;4924191;28;20144;-54
2023/08/31 05:00:46;;;;;;;301.27;39.73;;;;;;;;;;4922848;28;20074;-54
2023/08/31 05:03:12;;;;;;;291.60;40.03;;;;;;;;;;4924445;28;20367;-53
2023/08/31 05:05:37;;;;;;;267.10;39.27;;;;;;;;;;4924524;28;20252;-53
2023/08/31 05:08:03;;;;;;;183.13;37.93;;;;;;;;;;4926147;28;20629;-54
2023/08/31 05:10:28;;;;;;;376.67;44.55;;;;;;;;;;4924072;28;20314;-54
2023/08/31 05:12:54;;;;;;;271.75;39.25;;;;;;;;;;4925538;28;20055;-57
2023/08/31 05:15:19;;;;;;;390.02;43.05;;;;;;;;;;4922831;28;20114;-54
2023/08/31 05:17:44;;;;;;;288.30;39.10;;;;;;;;;;4923291;28;20032;-55
2023/08/31 05:20:10;;;;;;;220.25;38.15;;;;;;;;;;4924288;28;20768;-55
2023/08/31 05:22:35;;;;;;;244.77;38.33;;;;;;;;;;4925768;28;20015;-56
2023/08/31 05:25:00;;;;;;;261.60;38.88;;;;;;;;;;4925976;28;20032;-55
2023/08/31 05:27:26;;;;;;;413.38;43.30;;;;;;;;;;4924154;28;20086;-55
2023/08/31 05:29:51;;;;;;;303.45;39.40;;;;;;;;;;4925266;28;20077;-53
2023/08/31 05:32:16;;;;;;;274.27;39.23;;;;;;;;;;4924786;28;20283;-56
2023/08/31 05:34:41;;;;;;;292.03;40.03;;;;;;;;;;4924265;28;20850;-55
2023/08/31 05:37:07;;;;;;;264.73;38.30;;;;;;;;;;4924964;28;20322;-54
2023/08/31 05:39:32;;;;;;;378.17;42.67;;;;;;;;;;4923571;28;20794;-54
2023/08/31 05:41:57;;;;;;;282.25;39.20;;;;;;;;;;4925237;28;20069;-54
2023/08/31 05:44:23;;;;;;;411.77;43.63;;;;;;;;;;4923381;28;20429;-57
2023/08/31 05:46:48;;;;;;;265.75;41.40;;;;;;;;;;4922236;28;20295;-55
2023/08/31 05:49:13;;;;;;;331.48;40.20;;;;;;;;;;4925484;28;20035;-55
2023/08/31 05:51:38;;;;;;;268.27;38.53;;;;;;;;;;4923791;28;20086;-56
2023/08/31 05:54:04;;;;;;;274.50;38.87;;;;;;;;;;4926151;28;20761;-57
2023/08/31 05:56:29;;;;;;;447.10;43.67;;;;;;;;;;4923078;28;20658;-57
2023/08/31 05:58:55;;;;;;;200.30;37.47;;;;;;;;;;4925761;28;20024;-55
2023/08/31 06:01:22;;;;;;;307.92;40.05;;;;;;;;;;4921654;28;20789;-56
2023/08/31 06:03:48;;;;;;;313.00;37.35;;;;;;;;;;4924019;28;20039;-57
2023/08/31 06:06:13;;;;;;;250.48;37.92;;;;;;;;;;4926047;28;20400;-56
2023/08/31 06:08:38;;;;;;;261.00;38.53;;;;;;;;;;4924483;28;20489;-58
2023/08/31 06:11:03;;;;;;;280.50;38.57;;;;;;;;;;4923395;28;20654;-56
2023/08/31 06:13:29;;;;;;;362.10;42.83;;;;;;;;;;4923713;28;20274;-56
2023/08/31 06:15:55;;;;;;;250.37;40.37;;;;;;;;;;4924255;28;20271;-57
2023/08/31 06:18:20;;;;;;;408.80;43.90;;;;;;;;;;4924088;28;20249;-56
2023/08/31 06:20:48;;;;;;;275.67;37.33;;;;;;;;;;4924076;28;20040;-55
2023/08/31 06:23:13;;;;;;;232.63;33.63;;;;;;;;;;4925910;28;20031;-56
2023/08/31 06:25:38;;;;;;;326.33;34.63;;;;;;;;;;4927326;28;20405;-56
2023/08/31 06:28:06;;;;;;;240.10;31.92;;;;;;;;;;4928811;28;20278;-54
2023/08/31 06:30:32;;;;;;;367.98;35.85;;;;;;;;;;4926756;28;20035;-57
2023/08/31 06:32:57;;;;;;;271.67;31.00;;;;;;;;;;4928903;28;20048;-56
2023/08/31 06:35:23;;;;;;;346.55;35.15;;;;;;;;;;4926437;28;20034;-55
2023/08/31 06:37:50;;;;;;;220.40;27.63;;;;;;;;;;4928439;28;20512;-55
2023/08/31 06:40:15;;;;;;;308.98;28.40;;;;;;;;;;4927933;28;20035;-55
2023/08/31 06:42:40;;;;;;;242.70;23.20;;;;;;;;;;4925859;28;20050;-55
2023/08/31 06:45:06;;;;;;;209.38;21.67;;;;;;;;;;4928236;28;20628;-55
2023/08/31 06:47:33;;;;;;;392.88;26.95;;;;;;;;;;4926093;28;20466;-54
2023/08/31 06:49:58;;;;;;;257.88;22.35;;;;;;;;;;4928773;28;20031;-56
2023/08/31 06:52:24;;;;;;;373.83;28.58;;;;;;;;;;4926941;28;20481;-56
2023/08/31 06:54:49;;;;;;;269.27;25.10;;;;;;;;;;4928215;28;20034;-55
2023/08/31 06:57:14;;;;;;;236.05;19.55;;;;;;;;;;4926498;28;20059;-55
2023/08/31 06:59:40;;;;;;;176.13;14.70;;;;;;;;;;4926694;28;20102;-57
2023/08/31 07:02:05;;;;;;;221.95;12.68;;;;;;;;;;4925825;28;20722;-56
2023/08/31 07:04:30;;;;;;;207.18;11.38;;;;;;;;;;4928956;28;20668;-55
2023/08/31 07:06:56;;;;;;;119.07;7.63;;;;;;;;;;4931050;28;20042;-57
2023/08/31 07:09:21;;;;;;;240.13;16.93;;;;;;;;;;4929807;28;20027;-56
2023/08/31 07:11:46;;;;;;;160.97;8.33;;;;;;;;;;4929529;28;20778;-55
2023/08/31 07:14:11;;;;;;;172.95;12.65;;;;;;;;;;4930629;28;20481;-54
2023/08/31 07:16:37;;;;;;;330.40;16.77;;;;;;;;;;4935314;28;20074;-56
2023/08/31 07:19:02;;;;;;;155.03;12.03;;;;;;;;;;4931965;28;20813;-56
2023/08/31 07:21:27;;;;;;;241.18;12.32;;;;;;;;;;4929297;28;20280;-55
2023/08/31 07:23:53;;;;;;;183.30;9.30;;;;;;;;;;4929665;28;20094;-55
2023/08/31 07:26:19;;;;;;;173.23;11.13;;;;;;;;;;4932182;28;20633;-55
2023/08/31 07:28:44;;;;;;;130.63;8.37;;;;;;;;;;4930906;28;20034;-56
2023/08/31 07:31:09;;;;;;;201.97;9.50;;;;;;;;;;4930638;28;20039;-55
2023/08/31 07:33:35;;;;;;;306.40;13.73;;;;;;;;;;4931967;28;20761;-57
2023/08/31 07:36:00;;;;;;;123.28;7.10;;;;;;;;;;4931303;28;20146;-54
2023/08/31 07:38:26;;;;;;;281.33;22.80;;;;;;;;;;4928488;28;20506;-55
2023/08/31 07:40:52;;;;;;;137.68;7.03;;;;;;;;;;4930734;28;20027;-57
2023/08/31 07:43:17;;;;;;;143.85;7.28;;;;;;;;;;4930645;28;20024;-56
2023/08/31 07:45:42;;;;;;;214.07;8.83;;;;;;;;;;4929571;28;20665;-55
2023/08/31 07:48:07;;;;;;;133.63;6.33;;;;;;;;;;4930955;28;20275;-55
2023/08/31 07:50:34;;;;;;;275.50;11.63;;;;;;;;;;4930278;28;20031;-55
2023/08/31 07:52:59;;;;;;;293.63;99.80;;;;;;;;;;4931714;28;20198;-56
2023/08/31 07:55:24;;;;;;;323.77;32.00;;;;;;;;;;4929936;28;20035;-55
2023/08/31 07:57:50;;;;;;;169.57;7.50;;;;;;;;;;4931345;28;20034;-58
2023/08/31 08:00:15;;;;;;;256.47;13.77;;;;;;;;;;4930242;28;20117;-56
2023/08/31 08:02:40;;;;;;;148.98;6.68;;;;;;;;;;4929357;28;20349;-57
2023/08/31 08:05:06;;;;;;;151.67;12.90;;;;;;;;;;4930907;28;20131;-56
2023/08/31 08:07:31;;;;;;;271.50;26.67;;;;;;;;;;4930120;28;20757;-56
2023/08/31 08:09:56;;;;;;;159.60;7.17;;;;;;;;;;4933306;28;20106;-57
2023/08/31 08:12:21;;;;;;;171.38;18.27;;;;;;;;;;4932031;28;20028;-56
2023/08/31 08:14:47;;;;;;;182.53;7.43;;;;;;;;;;4929654;28;20648;-56
2023/08/31 08:17:12;;;;;;;162.53;7.13;;;;;;;;;;4931058;28;20272;-57
2023/08/31 08:19:37;;;;;;;249.80;10.67;;;;;;;;;;4931073;28;20114;-55
2023/08/31 08:22:03;;;;;;;206.30;18.50;;;;;;;;;;4928075;28;20624;-56
2023/08/31 08:24:29;;;;;;;194.27;12.48;;;;;;;;;;4931257;28;20291;-55
2023/08/31 08:26:54;;;;;;;135.95;6.28;;;;;;;;;;4930463;28;20047;-57
2023/08/31 08:29:19;;;;;;;194.53;13.13;;;;;;;;;;4930621;28;20075;-57
2023/08/31 08:31:44;;;;;;;159.13;7.13;;;;;;;;;;4928557;28;20339;-55
2023/08/31 08:34:10;;;;;;;174.57;7.07;;;;;;;;;;4928905;28;20042;-55
2023/08/31 08:36:35;;;;;;;318.70;12.93;;;;;;;;;;4928695;28;20039;-56
2023/08/31 08:39:00;;;;;;;141.23;7.10;;;;;;;;;;4929652;28;20646;-55
2023/08/31 08:41:27;;;;;;;171.93;19.23;;;;;;;;;;4929863;28;20401;-55
2023/08/31 08:43:53;;;;;;;196.60;8.02;;;;;;;;;;4930344;28;20043;-58
2023/08/31 08:46:18;;;;;;;227.63;33.47;;;;;;;;;;4930649;28;20060;-56
2023/08/31 08:48:44;;;;;;;120.03;5.75;;;;;;;;;;4927950;28;21749;-57
2023/08/31 08:51:10;;;;;;;205.23;23.08;;;;;;;;;;4928951;28;20034;-57
2023/08/31 08:53:37;;;;;;;277.05;11.05;;;;;;;;;;4927874;28;20019;-55
2023/08/31 08:56:03;;;;;;;140.35;6.53;;;;;;;;;;4926305;28;20032;-56
2023/08/31 08:58:28;;;;;;;281.88;14.13;;;;;;;;;;4927163;28;20023;-57
2023/08/31 09:00:54;;;;;;;149.57;9.73;;;;;;;;;;4927537;28;20070;-57
2023/08/31 09:03:19;;;;;;;138.02;8.88;;;;;;;;;;4931215;28;20028;-55
2023/08/31 09:05:45;;;;;;;188.00;7.35;;;;;;;;;;4928034;28;20053;-58
2023/08/31 09:08:12;;;;;;;123.80;6.10;;;;;;;;;;4929980;28;20087;-57
2023/08/31 09:10:40;;;;;;;277.85;11.70;;;;;;;;;;4928714;28;20545;-57
2023/08/31 09:13:09;;;;;;;213.90;8.55;;;;;;;;;;4930666;28;20031;-55
2023/08/31 09:15:47;;;;;;;230.65;10.10;;;;;;;;;;4925895;28;20106;-56
2023/08/31 09:18:13;;;;;;;213.30;9.18;;;;;;;;;;4930459;28;20030;-56
2023/08/31 09:20:42;;;;;;;194.98;9.13;;;;;;;;;;4928684;28;20051;-57
2023/08/31 09:23:08;;;;;;;156.77;7.78;;;;;;;;;;4929420;28;20063;-55
2023/08/31 09:25:38;;;;;;;326.40;13.35;;;;;;;;;;4924480;28;20040;-55
2023/08/31 09:28:03;;;;;;;133.15;7.57;;;;;;;;;;4930741;28;20032;-57
2023/08/31 09:30:34;;;;;;;210.93;10.43;;;;;;;;;;4927416;28;20281;-56
2023/08/31 09:32:59;;;;;;;197.77;10.18;;;;;;;;;;4929700;28;20058;-57
2023/08/31 09:35:25;;;;;;;170.10;9.73;;;;;;;;;;4928748;28;20158;-57
2023/08/31 09:37:55;;;;;;;179.00;10.80;;;;;;;;;;4927928;28;20338;-56
2023/08/31 09:40:20;;;;;;;204.30;11.52;;;;;;;;;;4926365;28;20493;-55
2023/08/31 09:42:49;;;;;;;184.70;11.27;;;;;;;;;;4929181;28;20027;-56
2023/08/31 09:45:16;;;;;;;205.82;10.98;;;;;;;;;;4924991;28;20289;-55
2023/08/31 09:47:42;;;;;;;257.65;13.57;;;;;;;;;;4929330;28;20118;-55
2023/08/31 09:50:08;;;;;;;134.23;8.93;;;;;;;;;;4928474;28;20165;-57
2023/08/31 09:52:34;;;;;;;303.80;14.77;;;;;;;;;;4926316;28;20035;-56
2023/08/31 09:55:00;;;;;;;124.25;8.77;;;;;;;;;;4928777;28;20504;-57
2023/08/31 09:57:26;;;;;;;146.88;11.02;;;;;;;;;;4928366;28;20058;-56
2023/08/31 09:59:51;;;;;;;215.38;9.88;;;;;;;;;;4929329;28;20674;-56
2023/08/31 10:02:17;;;;;;;179.15;8.57;;;;;;;;;;4927177;28;20031;-57
2023/08/31 10:04:42;;;;;;;289.33;12.35;;;;;;;;;;4925980;28;20174;-57
2023/08/31 10:07:09;;;;;;;189.68;8.10;;;;;;;;;;4926320;28;20095;-56
2023/08/31 10:09:35;;;;;;;326.35;43.05;;;;;;;;;;4929199;28;20038;-57
2023/08/31 10:12:03;;;;;;;180.02;26.45;;;;;;;;;;4927413;28;20031;-58
2023/08/31 10:14:28;;;;;;;282.98;54.00;;;;;;;;;;4928350;28;20024;-55
2023/08/31 10:16:55;;;;;;;263.73;79.68;;;;;;;;;;4926711;28;20047;-55
2023/08/31 10:19:21;;;;;;;242.23;19.80;;;;;;;;;;4928250;28;20030;-56
2023/08/31 10:21:46;;;;;;;473.37;84.57;;;;;;;;;;4925321;28;20496;-56
2023/08/31 10:24:11;;;;;;;178.82;7.03;;;;;;;;;;4929096;28;20023;-57
2023/08/31 10:26:37;;;;;;;289.13;28.45;;;;;;;;;;4926652;28;20110;-57
2023/08/31 10:29:03;;;;;;;231.55;14.65;;;;;;;;;;4927470;28;20016;-57
2023/08/31 10:31:29;;;;;;;142.88;7.13;;;;;;;;;;4928389;28;20101;-58
2023/08/31 10:33:58;;;;;;;187.32;18.13;;;;;;;;;;4927990;28;20295;-56
2023/08/31 10:36:35;;;;;;;195.32;7.45;;;;;;;;;;4928041;28;20680;-55
2023/08/31 10:39:00;;;;;;;157.15;10.32;;;;;;;;;;4930169;28;20030;-55
2023/08/31 10:41:32;;;;;;;202.45;7.53;;;;;;;;;;4928367;28;20111;-55
2023/08/31 10:43:57;;;;;;;175.68;7.40;;;;;;;;;;4932256;28;20695;-57
2023/08/31 10:46:30;;;;;;;135.60;6.28;;;;;;;;;;4926324;28;20494;-56
2023/08/31 10:48:56;;;;;;;165.02;7.00;;;;;;;;;;4927748;28;20097;-56
2023/08/31 10:51:23;;;;;;;149.93;7.03;;;;;;;;;;4929892;28;20034;-56
2023/08/31 10:53:48;;;;;;;263.05;10.40;;;;;;;;;;4927722;28;20106;-56
2023/08/31 10:56:15;;;;;;;156.33;7.00;;;;;;;;;;4925982;28;20082;-57
2023/08/31 10:58:40;;;;;;;267.27;11.70;;;;;;;;;;4926104;28;20279;-57
2023/08/31 11:01:06;;;;;;;227.60;10.13;;;;;;;;;;4925572;28;20028;-57
2023/08/31 11:03:31;;;;;;;155.80;8.53;;;;;;;;;;4928976;28;20689;-57
2023/08/31 11:05:56;;;;;;;146.83;10.73;;;;;;;;;;4926743;28;20292;-56
2023/08/31 11:08:25;;;;;;;187.63;8.52;;;;;;;;;;4928961;28;20054;-54
2023/08/31 11:10:51;;;;;;;228.75;10.50;;;;;;;;;;4929157;28;20036;-58
2023/08/31 11:13:18;;;;;;;177.85;8.02;;;;;;;;;;4933778;28;20442;-56
2023/08/31 11:15:47;;;;;;;256.65;19.90;;;;;;;;;;4929098;28;20270;-55
2023/08/31 11:18:12;;;;;;;128.95;7.00;;;;;;;;;;4931907;28;20033;-55
2023/08/31 11:20:38;;;;;;;272.20;15.38;;;;;;;;;;4930448;28;20036;-55
2023/08/31 11:23:03;;;;;;;185.45;8.57;;;;;;;;;;4932525;28;20462;-55
2023/08/31 11:25:31;;;;;;;141.98;7.03;;;;;;;;;;4929365;28;20557;-57
2023/08/31 11:27:58;;;;;;;146.13;7.97;;;;;;;;;;4931228;28;20019;-57
2023/08/31 11:30:25;;;;;;;510.02;241.32;;;;;;;;;;4930536;28;20024;-56
2023/08/31 11:32:51;;;;;;;220.40;9.40;;;;;;;;;;4928743;28;20344;-58
2023/08/31 11:35:17;;;;;;;184.23;10.73;;;;;;;;;;4930519;28;20074;-56
2023/08/31 11:37:43;;;;;;;285.55;25.67;;;;;;;;;;4931303;28;20016;-56
2023/08/31 11:40:08;;;;;;;187.88;10.38;;;;;;;;;;4929203;28;20380;-55
2023/08/31 11:42:34;;;;;;;209.95;17.88;;;;;;;;;;4931328;28;20149;-55
2023/08/31 11:44:59;;;;;;;140.55;10.18;;;;;;;;;;4930990;28;20032;-55
2023/08/31 11:47:24;;;;;;;139.43;6.75;;;;;;;;;;4929899;28;20456;-56
2023/08/31 11:49:50;;;;;;;332.17;12.90;;;;;;;;;;4936429;28;20492;-55
2023/08/31 11:52:16;;;;;;;135.38;6.70;;;;;;;;;;4929161;28;20032;-57
2023/08/31 11:54:42;;;;;;;222.38;9.82;;;;;;;;;;4930690;28;20027;-55
2023/08/31 11:57:08;;;;;;;170.30;7.05;;;;;;;;;;4930318;28;20572;-56
2023/08/31 11:59:37;;;;;;;149.40;6.88;;;;;;;;;;4929461;28;20074;-57
2023/08/31 12:02:07;;;;;;;134.48;6.90;;;;;;;;;;4930683;28;20730;-57
2023/08/31 12:04:32;;;;;;;324.42;34.95;;;;;;;;;;4931063;28;20038;-56
2023/08/31 12:07:06;;;;;;;131.18;6.32;;;;;;;;;;4932312;28;20039;-55
2023/08/31 12:09:31;;;;;;;113.47;6.20;;;;;;;;;;4933030;28;20015;-55
2023/08/31 12:11:57;;;;;;;118.85;6.03;;;;;;;;;;4928418;28;20996;-55
2023/08/31 12:14:23;;;;;;;135.13;6.53;;;;;;;;;;4932162;28;20093;-56
2023/08/31 12:16:49;;;;;;;287.05;12.07;;;;;;;;;;4929277;28;20334;-57
2023/08/31 12:19:14;;;;;;;189.52;7.75;;;;;;;;;;4929580;28;20028;-57
2023/08/31 12:21:41;;;;;;;241.18;10.63;;;;;;;;;;4928326;28;20039;-57
2023/08/31 12:24:07;;;;;;;206.15;8.73;;;;;;;;;;4929482;28;20536;-57
2023/08/31 12:26:32;;;;;;;175.88;8.13;;;;;;;;;;4930626;28;20035;-56
2023/08/31 12:28:57;;;;;;;133.48;6.68;;;;;;;;;;4929452;28;20034;-56
2023/08/31 12:31:23;;;;;;;195.60;8.23;;;;;;;;;;4929102;28;20036;-58
2023/08/31 12:33:48;;;;;;;370.70;25.55;;;;;;;;;;4928818;28;20913;-58
2023/08/31 12:36:14;;;;;;;161.82;13.88;;;;;;;;;;4930290;28;20050;-60
2023/08/31 12:38:39;;;;;;;216.25;10.45;;;;;;;;;;4929387;28;20032;-58
2023/08/31 12:41:04;;;;;;;156.10;6.88;;;;;;;;;;4929145;28;20109;-58
2023/08/31 12:43:30;;;;;;;166.13;9.97;;;;;;;;;;4932371;28;20019;-59
2023/08/31 12:45:55;;;;;;;279.90;11.63;;;;;;;;;;4927780;28;20283;-57
2023/08/31 12:48:21;;;;;;;153.27;6.78;;;;;;;;;;4931777;28;20717;-59
2023/08/31 12:50:47;;;;;;;277.77;11.70;;;;;;;;;;4928178;28;20048;-59
2023/08/31 12:53:13;;;;;;;195.02;9.60;;;;;;;;;;4930132;28;20035;-60
2023/08/31 12:55:38;;;;;;;160.55;6.65;;;;;;;;;;4928316;28;20469;-58
2023/08/31 12:58:03;;;;;;;113.37;15.63;;;;;;;;;;4937103;28;20528;-57
2023/08/31 13:00:29;;;;;;;163.25;14.90;;;;;;;;;;4931596;28;20426;-59
2023/08/31 13:02:54;;;;;;;271.77;11.80;;;;;;;;;;4928014;28;20028;-57
2023/08/31 13:05:20;;;;;;;161.52;7.68;;;;;;;;;;4930097;28;20289;-57
2023/08/31 13:07:45;;;;;;;296.33;12.65;;;;;;;;;;4927887;28;20501;-58
2023/08/31 13:10:11;;;;;;;155.40;7.10;;;;;;;;;;4930359;28;20023;-56
2023/08/31 13:12:37;;;;;;;155.15;9.32;;;;;;;;;;4930560;28;20128;-58
2023/08/31 13:15:02;;;;;;;179.02;17.98;;;;;;;;;;4928410;28;20025;-58
2023/08/31 13:17:28;;;;;;;169.68;7.40;;;;;;;;;;4929107;28;20031;-56
2023/08/31 13:19:53;;;;;;;347.27;13.15;;;;;;;;;;4928645;28;20031;-56
2023/08/31 13:22:19;;;;;;;178.80;7.43;;;;;;;;;;4929225;28;20035;-56
2023/08/31 13:24:45;;;;;;;288.02;17.88;;;;;;;;;;4928545;28;21128;-56
2023/08/31 13:27:10;;;;;;;173.32;17.42;;;;;;;;;;4929448;28;20062;-56
2023/08/31 13:29:36;;;;;;;193.98;13.50;;;;;;;;;;4927398;28;20035;-55
2023/08/31 13:32:01;;;;;;;127.40;6.10;;;;;;;;;;4927345;28;20545;-57
2023/08/31 13:34:26;;;;;;;147.00;6.40;;;;;;;;;;4930616;28;20420;-57
2023/08/31 13:36:51;;;;;;;230.57;9.70;;;;;;;;;;4928886;28;20311;-57
2023/08/31 13:39:17;;;;;;;211.27;8.07;;;;;;;;;;4928827;28;20386;-57
2023/08/31 13:41:42;;;;;;;225.93;16.80;;;;;;;;;;4929406;28;20275;-57
2023/08/31 13:44:07;;;;;;;178.90;7.30;;;;;;;;;;4929745;28;20286;-56
2023/08/31 13:46:32;;;;;;;211.47;11.03;;;;;;;;;;4930092;28;20083;-58
2023/08/31 13:48:58;;;;;;;250.67;10.37;;;;;;;;;;4926134;28;20717;-56
2023/08/31 13:51:23;;;;;;;158.73;7.00;;;;;;;;;;4927638;28;20496;-57
2023/08/31 13:53:48;;;;;;;390.87;17.53;;;;;;;;;;4928497;28;20059;-58
2023/08/31 13:56:13;;;;;;;142.57;6.27;;;;;;;;;;4928703;28;20036;-58
2023/08/31 13:58:39;;;;;;;150.90;6.93;;;;;;;;;;4926940;28;20824;-59
2023/08/31 14:01:04;;;;;;;201.35;7.80;;;;;;;;;;4927926;28;20485;-59